createdAt,value
2018-07-25T00:01:00.331Z,24.10
2018-07-25T00:06:00.966Z,24.10
2018-07-25T00:08:31.670Z,24.10
2018-07-25T00:11:03.166Z,24.00
2018-07-25T00:16:04.117Z,24.00
2018-07-25T00:21:05.580Z,23.90
2018-07-25T00:23:36.540Z,23.90
2018-07-25T00:26:07.245Z,23.90
2018-07-25T00:31:08.139Z,23.80
2018-07-25T00:33:38.776Z,23.80
2018-07-25T00:36:09.483Z,23.80
2018-07-25T00:38:39.916Z,23.70
2018-07-25T00:41:10.707Z,23.70
2018-07-25T00:46:11.693Z,23.70
2018-07-25T00:48:42.804Z,23.60
2018-07-25T00:51:13.489Z,23.60
2018-07-25T00:53:45.044Z,23.60
2018-07-25T00:56:16.249Z,23.50
2018-07-25T01:01:16.994Z,23.50
2018-07-25T01:06:17.875Z,23.40
2018-07-25T01:08:48.313Z,23.40
2018-07-25T01:11:19.158Z,23.40
2018-07-25T01:13:49.935Z,23.30
2018-07-25T01:16:20.659Z,23.30
2018-07-25T01:21:22.493Z,23.20
2018-07-25T01:23:53.243Z,23.20
2018-07-25T01:26:23.659Z,23.20
2018-07-25T01:28:54.455Z,23.20
2018-07-25T01:31:25.158Z,23.20
2018-07-25T01:33:55.840Z,23.10
2018-07-25T01:36:26.795Z,23.10
2018-07-25T01:38:57.903Z,23.10
2018-07-25T01:41:28.826Z,23.00
2018-07-25T01:43:59.710Z,23.00
2018-07-25T01:46:30.597Z,23.00
2018-07-25T01:49:01.354Z,23.00
2018-07-25T01:51:31.992Z,22.90
2018-07-25T01:54:03.238Z,22.90
2018-07-25T01:56:33.638Z,22.90
2018-07-25T01:59:04.621Z,22.90
2018-07-25T02:01:35.283Z,22.90
2018-07-25T02:06:35.975Z,22.90
2018-07-25T02:09:10.365Z,22.90
2018-07-25T02:11:41.862Z,22.80
2018-07-25T02:14:18.136Z,22.80
2018-07-25T02:16:49.108Z,22.80
2018-07-25T02:21:50.450Z,22.70
2018-07-25T02:24:25.620Z,22.70
2018-07-25T02:26:56.237Z,22.70
2018-07-25T02:31:57.142Z,22.60
2018-07-25T02:34:27.775Z,22.60
2018-07-25T02:41:58.548Z,22.50
2018-07-25T02:44:29.222Z,22.50
2018-07-25T02:46:59.798Z,22.50
2018-07-25T02:49:31.002Z,22.40
2018-07-25T02:52:01.375Z,22.40
2018-07-25T02:57:02.525Z,22.40
2018-07-25T02:59:33.091Z,22.30
2018-07-25T03:02:03.988Z,22.30
2018-07-25T03:04:34.692Z,22.30
2018-07-25T03:07:05.419Z,22.30
2018-07-25T03:09:35.827Z,22.30
2018-07-25T03:12:06.416Z,22.20
2018-07-25T03:14:37.040Z,22.20
2018-07-25T03:17:08.136Z,22.20
2018-07-25T03:19:39.015Z,22.20
2018-07-25T03:24:40.815Z,22.20
2018-07-25T03:27:11.415Z,22.20
2018-07-25T03:29:42.363Z,22.20
2018-07-25T03:32:13.367Z,22.10
2018-07-25T03:34:44.332Z,22.10
2018-07-25T03:37:14.915Z,22.10
2018-07-25T03:39:45.310Z,22.10
2018-07-25T03:42:16.223Z,22.10
2018-07-25T03:44:47.226Z,22.10
2018-07-25T03:47:17.939Z,22.00
2018-07-25T03:49:49.739Z,22.00
2018-07-25T03:52:20.695Z,22.00
2018-07-25T03:54:51.075Z,22.00
2018-07-25T03:57:21.433Z,22.00
2018-07-25T03:59:52.678Z,22.00
2018-07-25T04:02:23.028Z,22.00
2018-07-25T04:04:53.410Z,22.00
2018-07-25T04:07:23.755Z,22.00
2018-07-25T04:09:54.460Z,22.00
2018-07-25T04:12:25.382Z,22.00
2018-07-25T04:14:56.563Z,22.00
2018-07-25T04:17:31.619Z,22.00
2018-07-25T04:20:02.535Z,22.00
2018-07-25T04:22:32.875Z,22.00
2018-07-25T04:25:04.006Z,22.00
2018-07-25T04:27:34.720Z,22.00
2018-07-25T04:30:06.648Z,22.00
2018-07-25T04:32:37.223Z,22.00
2018-07-25T04:35:08.582Z,22.00
2018-07-25T04:37:39.199Z,22.00
2018-07-25T04:40:09.903Z,22.00
2018-07-25T04:42:40.816Z,22.00
2018-07-25T04:47:42.168Z,22.00
2018-07-25T04:52:42.466Z,22.00
2018-07-25T04:55:13.405Z,22.10
2018-07-25T04:57:43.746Z,22.10
2018-07-25T05:00:14.666Z,22.10
2018-07-25T05:02:45.298Z,22.20
2018-07-25T05:05:16.184Z,22.10
2018-07-25T05:12:47.043Z,22.20
2018-07-25T05:15:17.707Z,22.30
2018-07-25T05:17:48.396Z,22.30
2018-07-25T05:20:19.265Z,22.30
2018-07-25T05:22:50.171Z,22.40
2018-07-25T05:27:51.599Z,22.50
2018-07-25T05:30:22.743Z,22.60
2018-07-25T05:32:53.347Z,22.70
2018-07-25T05:35:23.984Z,22.80
2018-07-25T05:37:54.326Z,22.90
2018-07-25T05:40:24.711Z,22.90
2018-07-25T05:42:55.382Z,23.10
2018-07-25T05:45:26.319Z,23.20
2018-07-25T05:47:57.190Z,23.30
2018-07-25T05:50:28.094Z,23.40
2018-07-25T05:52:59.054Z,23.50
2018-07-25T05:55:29.439Z,23.60
2018-07-25T05:58:00.084Z,23.70
2018-07-25T06:00:30.697Z,23.90
2018-07-25T06:03:01.164Z,24.00
2018-07-25T06:05:31.875Z,24.10
2018-07-25T06:08:07.836Z,24.20
2018-07-25T06:10:38.492Z,24.40
2018-07-25T06:13:09.392Z,24.50
2018-07-25T06:15:40.164Z,24.70
2018-07-25T06:18:10.823Z,24.80
2018-07-25T06:20:41.851Z,25.00
2018-07-25T06:23:12.634Z,25.10
2018-07-25T06:25:43.055Z,25.30
2018-07-25T06:28:13.627Z,25.40
2018-07-25T06:30:44.052Z,25.60
2018-07-25T06:38:15.223Z,26.10
2018-07-25T06:40:46.022Z,26.20
2018-07-25T06:43:16.453Z,26.40
2018-07-25T06:45:46.954Z,26.60
2018-07-25T06:48:18.329Z,26.80
2018-07-25T06:50:49.352Z,27.00
2018-07-25T06:53:22.350Z,27.20
2018-07-25T06:55:53.002Z,27.40
2018-07-25T06:58:23.388Z,27.60
2018-07-25T07:00:53.966Z,27.80
2018-07-25T07:05:54.888Z,28.30
2018-07-25T07:08:26.126Z,28.50
2018-07-25T07:10:56.731Z,28.70
2018-07-25T07:13:27.443Z,29.00
2018-07-25T07:18:28.048Z,29.60
2018-07-25T07:25:59.808Z,30.60
2018-07-25T07:28:30.748Z,31.00
2018-07-25T07:31:02.412Z,31.40
2018-07-25T07:33:35.000Z,31.80
2018-07-25T07:38:36.927Z,32.40
2018-07-25T07:41:08.420Z,32.70
2018-07-25T07:43:39.372Z,32.90
2018-07-25T07:46:10.527Z,33.10
2018-07-25T07:48:42.318Z,33.30
2018-07-25T07:51:13.494Z,33.50
2018-07-25T07:53:45.019Z,33.70
2018-07-25T07:56:16.229Z,34.00
2018-07-25T07:58:47.172Z,34.20
2018-07-25T08:01:18.317Z,34.40
2018-07-25T08:03:49.577Z,34.60
2018-07-25T08:06:20.487Z,34.80
2018-07-25T08:08:51.672Z,35.10
2018-07-25T08:11:22.565Z,35.30
2018-07-25T08:13:53.562Z,35.70
2018-07-25T08:16:24.761Z,36.00
2018-07-25T08:18:55.964Z,36.40
2018-07-25T08:23:57.699Z,37.40
2018-07-25T08:26:28.910Z,37.90
2018-07-25T08:29:00.599Z,38.40
2018-07-25T08:31:34.348Z,39.00
2018-07-25T08:34:05.657Z,39.60
2018-07-25T08:36:36.823Z,40.20
2018-07-25T08:39:10.479Z,40.80
2018-07-25T08:41:41.160Z,41.40
2018-07-25T08:44:12.476Z,41.90
2018-07-25T08:46:43.130Z,42.50
2018-07-25T08:49:14.478Z,42.90
2018-07-25T08:51:45.091Z,43.30
2018-07-25T08:54:16.320Z,43.70
2018-07-25T08:56:47.498Z,44.00
2018-07-25T08:59:18.392Z,44.20
2018-07-25T09:01:49.023Z,44.40
2018-07-25T09:04:20.127Z,44.70
2018-07-25T09:06:51.229Z,44.80
2018-07-25T09:11:52.076Z,45.30
2018-07-25T09:14:23.040Z,45.50
2018-07-25T09:16:53.671Z,45.70
2018-07-25T09:21:55.679Z,46.10
2018-07-25T09:24:26.376Z,46.20
2018-07-25T09:26:57.322Z,46.20
2018-07-25T09:29:28.246Z,46.20
2018-07-25T09:31:59.184Z,46.20
2018-07-25T09:34:30.281Z,46.10
2018-07-25T09:37:01.115Z,46.00
2018-07-25T09:39:32.075Z,46.00
2018-07-25T09:42:02.908Z,45.80
2018-07-25T09:44:34.012Z,45.70
2018-07-25T09:47:05.100Z,45.30
2018-07-25T09:49:36.463Z,45.00
2018-07-25T09:52:07.644Z,44.50
2018-07-25T09:54:38.501Z,44.10
2018-07-25T09:57:09.330Z,43.60
2018-07-25T09:59:40.788Z,42.90
2018-07-25T10:07:14.883Z,41.00
2018-07-25T10:09:46.301Z,40.50
2018-07-25T10:12:17.663Z,40.10
2018-07-25T10:17:19.390Z,39.30
2018-07-25T10:19:50.340Z,39.00
2018-07-25T10:24:52.796Z,38.50
2018-07-25T10:27:24.203Z,38.30
2018-07-25T10:29:56.014Z,38.10
2018-07-25T10:32:27.416Z,38.00
2018-07-25T10:37:29.716Z,37.80
2018-07-25T10:40:01.152Z,37.70
2018-07-25T10:45:03.304Z,37.40
2018-07-25T10:47:34.199Z,37.30
2018-07-25T10:50:06.759Z,37.30
2018-07-25T10:52:37.672Z,37.20
2018-07-25T10:55:08.809Z,37.10
2018-07-25T10:57:40.303Z,37.00
2018-07-25T11:00:11.719Z,36.90
2018-07-25T11:05:14.515Z,36.80
2018-07-25T11:10:17.075Z,36.70
2018-07-25T11:12:48.251Z,36.60
2018-07-25T11:15:19.491Z,36.50
2018-07-25T11:22:52.174Z,36.20
2018-07-25T11:25:23.607Z,36.00
2018-07-25T11:27:55.511Z,35.80
2018-07-25T11:32:57.222Z,35.40
2018-07-25T11:35:29.251Z,35.30
2018-07-25T11:38:00.899Z,35.10
2018-07-25T11:45:33.678Z,34.70
2018-07-25T11:48:05.572Z,34.60
2018-07-25T11:50:37.328Z,34.50
2018-07-25T11:53:08.810Z,34.50
2018-07-25T11:55:40.613Z,34.40
2018-07-25T11:58:11.880Z,34.40
2018-07-25T12:03:13.279Z,34.50
2018-07-25T12:05:44.459Z,34.60
2018-07-25T12:08:15.595Z,34.70
2018-07-25T12:10:46.974Z,34.70
2018-07-25T12:13:18.634Z,34.70
2018-07-25T12:15:50.051Z,34.80
2018-07-25T12:18:21.531Z,34.90
2018-07-25T12:23:23.233Z,35.00
2018-07-25T12:25:54.399Z,35.10
2018-07-25T12:28:25.517Z,35.20
2018-07-25T12:30:56.887Z,35.20
2018-07-25T12:33:28.932Z,35.40
2018-07-25T12:36:00.568Z,35.50
2018-07-25T12:38:31.954Z,35.60
2018-07-25T12:41:03.116Z,35.70
2018-07-25T12:43:34.555Z,35.80
2018-07-25T12:46:05.778Z,36.00
2018-07-25T12:48:36.992Z,36.10
2018-07-25T12:51:09.124Z,36.20
2018-07-25T12:53:40.987Z,36.30
2018-07-25T12:56:12.359Z,36.30
2018-07-25T13:01:15.044Z,36.30
2018-07-25T13:03:46.157Z,36.30
2018-07-25T13:06:17.910Z,36.30
2018-07-25T13:08:49.621Z,36.30
2018-07-25T13:11:20.831Z,36.30
2018-07-25T13:16:23.099Z,36.10
2018-07-25T13:18:56.110Z,36.10
2018-07-25T13:23:58.331Z,35.90
2018-07-25T13:26:29.511Z,35.90
2018-07-25T13:29:00.612Z,35.80
2018-07-25T13:31:32.806Z,35.70
2018-07-25T13:34:04.151Z,35.60
2018-07-25T13:36:35.851Z,35.60
2018-07-25T13:39:09.509Z,35.50
2018-07-25T13:41:41.408Z,35.50
2018-07-25T13:46:43.244Z,35.40
2018-07-25T13:49:14.392Z,35.50
2018-07-25T13:51:45.760Z,35.50
2018-07-25T13:54:16.846Z,35.50
2018-07-25T13:56:48.255Z,35.50
2018-07-25T13:59:19.770Z,35.40
2018-07-25T14:01:51.227Z,35.40
2018-07-25T14:04:22.847Z,35.40
2018-07-25T14:06:54.031Z,35.30
2018-07-25T14:09:25.130Z,35.30
2018-07-25T14:11:56.952Z,35.20
2018-07-25T14:14:28.284Z,35.20
2018-07-25T14:17:00.163Z,35.10
2018-07-25T14:19:31.750Z,35.10
2018-07-25T14:22:03.195Z,35.10
2018-07-25T14:24:34.876Z,35.00
2018-07-25T14:27:06.281Z,34.90
2018-07-25T14:29:37.863Z,34.90
2018-07-25T14:32:09.574Z,34.80
2018-07-25T14:34:40.926Z,34.80
2018-07-25T14:39:43.434Z,34.70
2018-07-25T14:42:15.071Z,34.70
2018-07-25T14:47:18.140Z,34.60
2018-07-25T14:49:49.143Z,34.50
2018-07-25T14:52:20.845Z,34.50
2018-07-25T14:54:52.212Z,34.50
2018-07-25T14:57:24.251Z,34.40
2018-07-25T14:59:55.890Z,34.40
2018-07-25T15:02:27.414Z,34.30
2018-07-25T15:04:59.000Z,34.30
2018-07-25T15:10:01.368Z,34.30
2018-07-25T15:12:38.578Z,34.30
2018-07-25T15:15:09.895Z,34.20
2018-07-25T15:17:42.321Z,34.20
2018-07-25T15:20:13.702Z,34.20
2018-07-25T15:22:44.845Z,34.20
2018-07-25T15:25:16.259Z,34.20
2018-07-25T15:27:47.300Z,34.20
2018-07-25T15:30:18.986Z,34.30
2018-07-25T15:32:50.718Z,34.30
2018-07-25T15:37:52.522Z,34.40
2018-07-25T15:40:24.408Z,34.40
2018-07-25T15:42:56.396Z,34.40
2018-07-25T15:45:28.626Z,34.50
2018-07-25T15:48:00.087Z,34.50
2018-07-25T15:50:31.947Z,34.60
2018-07-25T15:53:03.725Z,34.60
2018-07-25T15:55:35.376Z,34.70
2018-07-25T15:58:07.147Z,34.80
2018-07-25T16:00:38.747Z,34.80
2018-07-25T16:03:10.365Z,34.90
2018-07-25T16:05:42.069Z,34.90
2018-07-25T16:08:13.170Z,35.00
2018-07-25T16:10:44.287Z,35.10
2018-07-25T16:13:15.837Z,35.20
2018-07-25T16:15:47.103Z,35.20
2018-07-25T16:18:18.788Z,35.40
2018-07-25T16:20:50.243Z,35.40
2018-07-25T16:23:21.887Z,35.50
2018-07-25T16:25:53.261Z,35.50
2018-07-25T16:28:25.284Z,35.60
2018-07-25T16:30:57.400Z,35.60
2018-07-25T16:33:28.981Z,35.60
2018-07-25T16:36:00.400Z,35.60
2018-07-25T16:38:32.092Z,35.60
2018-07-25T16:46:04.876Z,35.50
2018-07-25T16:48:36.546Z,35.30
2018-07-25T16:56:09.529Z,35.00
2018-07-25T16:58:40.940Z,34.90
2018-07-25T17:01:12.335Z,34.80
2018-07-25T17:03:44.253Z,34.70
2018-07-25T17:06:16.036Z,34.60
2018-07-25T17:11:19.061Z,34.30
2018-07-25T17:13:50.863Z,34.30
2018-07-25T17:18:53.884Z,34.10
2018-07-25T17:21:24.803Z,34.00
2018-07-25T17:23:55.923Z,33.90
2018-07-25T17:28:58.587Z,33.80
2018-07-25T17:31:30.023Z,33.70
2018-07-25T17:34:01.330Z,33.60
2018-07-25T17:36:32.958Z,33.60
2018-07-25T17:41:37.565Z,33.40
2018-07-25T17:44:08.942Z,33.30
2018-07-25T17:49:10.856Z,33.30
2018-07-25T17:51:42.322Z,33.20
2018-07-25T17:54:13.393Z,33.10
2018-07-25T17:56:44.748Z,33.10
2018-07-25T17:59:15.778Z,33.00
2018-07-25T18:01:46.900Z,33.00
2018-07-25T18:04:18.290Z,32.90
2018-07-25T18:09:20.681Z,32.80
2018-07-25T18:14:22.343Z,32.60
2018-07-25T18:16:54.056Z,32.50
2018-07-25T18:19:25.759Z,32.50
2018-07-25T18:24:28.343Z,32.30
2018-07-25T18:26:59.751Z,32.10
2018-07-25T18:29:30.699Z,32.10
2018-07-25T18:32:02.392Z,32.00
2018-07-25T18:37:04.292Z,31.70
2018-07-25T18:39:35.384Z,31.60
2018-07-25T18:42:06.605Z,31.50
2018-07-25T18:44:37.973Z,31.40
2018-07-25T18:47:11.162Z,31.30
2018-07-25T18:49:42.485Z,31.20
2018-07-25T18:52:13.610Z,31.10
2018-07-25T18:57:15.459Z,30.90
2018-07-25T18:59:46.053Z,30.80
2018-07-25T19:02:17.627Z,30.70
2018-07-25T19:07:18.800Z,30.50
2018-07-25T19:09:49.618Z,30.40
2018-07-25T19:12:20.789Z,30.30
2018-07-25T19:14:57.335Z,30.20
2018-07-25T19:17:28.115Z,30.10
2018-07-25T19:19:58.466Z,30.00
2018-07-25T19:22:29.149Z,29.90
2018-07-25T19:24:59.763Z,29.80
2018-07-25T19:27:30.985Z,29.80
2018-07-25T19:30:01.914Z,29.70
2018-07-25T19:32:32.488Z,29.60
2018-07-25T19:35:03.441Z,29.50
2018-07-25T19:37:34.119Z,29.50
2018-07-25T19:40:05.480Z,29.40
2018-07-25T19:45:07.496Z,29.20
2018-07-25T19:47:38.066Z,29.20
2018-07-25T19:50:08.642Z,29.10
2018-07-25T19:52:39.238Z,29.00
2018-07-25T19:55:09.812Z,29.00
2018-07-25T20:00:16.380Z,28.80
2018-07-25T20:02:41.847Z,28.70
2018-07-25T20:05:12.177Z,28.70
2018-07-25T20:07:43.292Z,28.60
2018-07-25T20:10:13.597Z,28.50
2018-07-25T20:12:43.965Z,28.40
2018-07-25T20:15:19.685Z,28.40
2018-07-25T20:17:50.635Z,28.30
2018-07-25T20:22:51.830Z,28.20
2018-07-25T20:25:22.461Z,28.10
2018-07-25T20:27:52.801Z,28.00
2018-07-25T20:30:24.227Z,28.00
2018-07-25T20:32:54.624Z,27.90
2018-07-25T20:35:25.507Z,27.90
2018-07-25T20:37:56.125Z,27.80
2018-07-25T20:40:26.779Z,27.70
2018-07-25T20:45:27.270Z,27.60
2018-07-25T20:47:58.182Z,27.60
2018-07-25T20:50:28.755Z,27.50
2018-07-25T20:52:59.755Z,27.50
2018-07-25T20:55:31.142Z,27.40
2018-07-25T20:58:01.770Z,27.40
2018-07-25T21:00:35.349Z,27.30
2018-07-25T21:03:07.338Z,27.30
2018-07-25T21:05:38.577Z,27.20
2018-07-25T21:08:09.162Z,27.20
2018-07-25T21:10:39.790Z,27.10
2018-07-25T21:13:10.807Z,27.10
2018-07-25T21:15:41.117Z,27.00
2018-07-25T21:18:11.455Z,27.00
2018-07-25T21:20:41.767Z,26.90
2018-07-25T21:23:12.630Z,26.90
2018-07-25T21:25:43.339Z,26.80
2018-07-25T21:28:13.943Z,26.80
2018-07-25T21:30:44.310Z,26.70
2018-07-25T21:33:14.998Z,26.60
2018-07-25T21:35:45.658Z,26.60
2018-07-25T21:38:16.676Z,26.50
2018-07-25T21:40:47.267Z,26.50
2018-07-25T21:43:18.498Z,26.40
2018-07-25T21:45:49.100Z,26.40
2018-07-25T21:48:20.116Z,26.40
2018-07-25T21:53:21.143Z,26.30
2018-07-25T21:55:52.249Z,26.20
2018-07-25T22:03:31.602Z,26.10
2018-07-25T22:06:02.531Z,26.10
2018-07-25T22:08:33.651Z,26.10
2018-07-25T22:11:04.518Z,26.10
2018-07-25T22:13:35.118Z,26.00
2018-07-25T22:16:05.738Z,26.00
2018-07-25T22:18:36.337Z,26.00
2018-07-25T22:21:07.214Z,26.00
2018-07-25T22:23:37.579Z,26.00
2018-07-25T22:28:38.841Z,26.10
2018-07-25T22:33:39.327Z,26.20
2018-07-25T22:36:10.823Z,26.30
2018-07-25T22:38:41.154Z,26.40
2018-07-25T22:41:11.947Z,26.50
2018-07-25T22:43:42.282Z,26.50
2018-07-25T22:46:13.335Z,26.70
2018-07-25T22:48:44.607Z,26.70
2018-07-25T22:51:15.495Z,26.80
2018-07-25T22:53:49.484Z,26.80
2018-07-25T22:56:19.790Z,26.90
2018-07-25T22:58:56.004Z,26.90
2018-07-25T23:03:56.991Z,26.90
2018-07-25T23:06:27.604Z,26.90
2018-07-25T23:08:58.867Z,26.90
2018-07-25T23:11:29.191Z,26.90
2018-07-25T23:14:00.327Z,26.80
2018-07-25T23:16:30.646Z,26.80
2018-07-25T23:19:01.282Z,26.70
2018-07-25T23:21:32.167Z,26.70
2018-07-25T23:24:02.759Z,26.60
2018-07-25T23:26:33.877Z,26.50
2018-07-25T23:31:34.997Z,26.50
2018-07-25T23:34:05.936Z,26.40
2018-07-25T23:36:36.562Z,26.30
2018-07-25T23:39:10.137Z,26.30
2018-07-25T23:41:41.098Z,26.30
2018-07-25T23:44:11.730Z,26.30
2018-07-25T23:46:42.082Z,26.20
2018-07-25T23:49:13.046Z,26.20
2018-07-25T23:51:44.305Z,26.10
2018-07-25T23:54:14.923Z,26.10
2018-07-25T23:56:46.115Z,26.10
2018-07-25T23:59:17.174Z,26.10
